Lady Lauren — WDE7767 — position and weather

sailwx.info

Track history (hours):
 
Tides and Currents Weather Stations Pressure Air Temp Water Temp Dewpoint Dewpoint Depression Visibility Wind Speed Wind Dir Waves Ship Positions

Lady Lauren

Owner: Louisiana Marine Towing LLC, Lafayette, LA. More information available from US FCC via Universal Licensing System and Coast Guard Vessel Documentation Center.

Last reported at 2014-Dec-20 22:12 UTC. Time now 2014-Dec-21 00:27 UTC.
Position N 29°41' W 091°28'.

Length 22 m; draft 2.1 m.

Type: Towing. MMSI: 367397380.

Date/timePositionNaut miles runAvg speedWind from/ knotsBaromVisibWave heightAir tempDewpointWater temp
2014-Dec-20 22:12N 29°41' W 091°28'3 4.8
2014-Dec-20 21:30N 29°39' W 091°24'4 4.3
2014-Dec-20 20:33N 29°38' W 091°20'4 4.4
2014-Dec-20 19:33N 29°39' W 091°15'4 3.9
2014-Dec-20 18:33N 29°41' W 091°11'2 2.3
2014-Dec-20 17:33N 29°40' W 091°08'3 2.7
2014-Dec-20 16:33N 29°38' W 091°06'3 2.9
2014-Dec-20 15:33N 29°37' W 091°03'4 3.4
2014-Dec-20 14:29N 29°36' W 090°59'8 3.3
2014-Dec-20 12:04N 29°32' W 090°51'5 0.1
2014-Dec-18 11:20N 29°34' W 090°45'2 2.5
2014-Dec-18 10:31N 29°32' W 090°47'6 2.7
2014-Dec-18 08:25N 29°33' W 090°53'4 3.0
2014-Dec-18 07:12N 29°34' W 090°57'2 2.8
2014-Dec-18 06:33N 29°36' W 090°58'3 2.9
2014-Dec-18 05:33N 29°37' W 091°01'3 3.3
2014-Dec-18 04:33N 29°38' W 091°05'2 2.4
2014-Dec-18 03:33N 29°39' W 091°07'3 3.0
2014-Dec-18 02:33N 29°41' W 091°09'2 1.6
2014-Dec-18 01:33N 29°41' W 091°11'1 0.5
2014-Dec-18 00:34N 29°41' W 091°12'3 3.0
2014-Dec-17 23:33N 29°39' W 091°15'3 2.7
2014-Dec-17 22:33N 29°39' W 091°18'3 2.8
2014-Dec-17 21:33N 29°38' W 091°21'7 2.4
2014-Dec-17 18:31N 29°41' W 091°29'6 0.2
2014-Dec-16 09:24N 29°44' W 091°34'4 4.2
2014-Dec-16 08:32N 29°42' W 091°31'4 3.6
2014-Dec-16 07:25N 29°40' W 091°27'3 3.6
2014-Dec-16 06:33N 29°39' W 091°23'4 4.0
2014-Dec-16 05:33N 29°38' W 091°19'4 4.1
2014-Dec-16 04:33N 29°40' W 091°14'3 3.4
2014-Dec-16 03:32N 29°41' W 091°11'1 1.0
2014-Dec-16 02:33N 29°41' W 091°09'1 1.5
2014-Dec-16 01:33N 29°40' W 091°08'3 2.9
2014-Dec-16 00:31N 29°38' W 091°05'53 2.7
2014-Dec-15 05:09N 29°46' W 090°05'1 1.4
2014-Dec-15 04:33N 29°47' W 090°04'2 2.3
2014-Dec-15 03:28N 29°49' W 090°04'2 2.2
2014-Dec-15 02:23N 29°51' W 090°02'4 3.1
2014-Dec-15 01:13N 29°54' W 089°60'2 2.7
2014-Dec-15 00:32N 29°55' W 089°58'0 0.2
2014-Dec-14 22:06N 29°55' W 089°58'8 0.4
2014-Dec-14 02:29N 29°55' W 090°07'3 3.3
2014-Dec-14 01:29N 29°56' W 090°04'3 2.4
2014-Dec-14 00:11N 29°56' W 090°00'2 3.0
2014-Dec-13 23:30N 29°55' W 089°58'1 0.9
2014-Dec-13 22:16N 29°55' W 089°59'52 1.4
2014-Dec-12 10:17N 29°32' W 090°52'3 4.2
2014-Dec-12 09:32N 29°34' W 090°55'4 4.2
2014-Dec-12 08:33N 29°37' W 090°59'4 3.8
2014-Dec-12 07:33N 29°37' W 091°03'3 3.4
2014-Dec-12 06:33N 29°38' W 091°07'2 1.9
2014-Dec-12 05:33N 29°40' W 091°08'3 2.5
2014-Dec-12 04:33N 29°41' W 091°10'1 0.7
2014-Dec-12 03:33N 29°41' W 091°11'3 3.1
2014-Dec-12 02:33N 29°40' W 091°14'2 2.0
2014-Dec-12 01:33N 29°39' W 091°17'4 3.7
2014-Dec-12 00:33N 29°38' W 091°21'3 3.3
2014-Dec-11 23:31N 29°39' W 091°25'22 2.1
2014-Dec-11 13:05N 29°47' W 091°49'  
Track history (hours):
 
Tides and Currents Weather Stations Pressure Air Temp Water Temp Dewpoint Dewpoint Depression Visibility Wind Speed Wind Dir Waves Ship Positions

Lady Lauren

Owner: Louisiana Marine Towing LLC, Lafayette, LA. More information available from US FCC via Universal Licensing System and Coast Guard Vessel Documentation Center.

Last reported at 2014-Dec-20 22:12 UTC. Time now 2014-Dec-21 00:27 UTC.
Position N 29°41' W 091°28'.

Length 22 m; draft 2.1 m.

Type: Towing. MMSI: 367397380.

Date/timePositionNaut miles runAvg speedWind from/ knotsBaromVisibWave heightAir tempDewpointWater temp
2014-Dec-20 22:12N 29°41' W 091°28'3 4.8
2014-Dec-20 21:30N 29°39' W 091°24'4 4.3
2014-Dec-20 20:33N 29°38' W 091°20'4 4.4
2014-Dec-20 19:33N 29°39' W 091°15'4 3.9
2014-Dec-20 18:33N 29°41' W 091°11'2 2.3
2014-Dec-20 17:33N 29°40' W 091°08'3 2.7
2014-Dec-20 16:33N 29°38' W 091°06'3 2.9
2014-Dec-20 15:33N 29°37' W 091°03'4 3.4
2014-Dec-20 14:29N 29°36' W 090°59'8 3.3
2014-Dec-20 12:04N 29°32' W 090°51'5 0.1
2014-Dec-18 11:20N 29°34' W 090°45'2 2.5
2014-Dec-18 10:31N 29°32' W 090°47'6 2.7
2014-Dec-18 08:25N 29°33' W 090°53'4 3.0
2014-Dec-18 07:12N 29°34' W 090°57'2 2.8
2014-Dec-18 06:33N 29°36' W 090°58'3 2.9
2014-Dec-18 05:33N 29°37' W 091°01'3 3.3
2014-Dec-18 04:33N 29°38' W 091°05'2 2.4
2014-Dec-18 03:33N 29°39' W 091°07'3 3.0
2014-Dec-18 02:33N 29°41' W 091°09'2 1.6
2014-Dec-18 01:33N 29°41' W 091°11'1 0.5
2014-Dec-18 00:34N 29°41' W 091°12'3 3.0
2014-Dec-17 23:33N 29°39' W 091°15'3 2.7
2014-Dec-17 22:33N 29°39' W 091°18'3 2.8
2014-Dec-17 21:33N 29°38' W 091°21'7 2.4
2014-Dec-17 18:31N 29°41' W 091°29'6 0.2
2014-Dec-16 09:24N 29°44' W 091°34'4 4.2
2014-Dec-16 08:32N 29°42' W 091°31'4 3.6
2014-Dec-16 07:25N 29°40' W 091°27'3 3.6
2014-Dec-16 06:33N 29°39' W 091°23'4 4.0
2014-Dec-16 05:33N 29°38' W 091°19'4 4.1
2014-Dec-16 04:33N 29°40' W 091°14'3 3.4
2014-Dec-16 03:32N 29°41' W 091°11'1 1.0
2014-Dec-16 02:33N 29°41' W 091°09'1 1.5
2014-Dec-16 01:33N 29°40' W 091°08'3 2.9
2014-Dec-16 00:31N 29°38' W 091°05'53 2.7
2014-Dec-15 05:09N 29°46' W 090°05'1 1.4
2014-Dec-15 04:33N 29°47' W 090°04'2 2.3
2014-Dec-15 03:28N 29°49' W 090°04'2 2.2
2014-Dec-15 02:23N 29°51' W 090°02'4 3.1
2014-Dec-15 01:13N 29°54' W 089°60'2 2.7
2014-Dec-15 00:32N 29°55' W 089°58'0 0.2
2014-Dec-14 22:06N 29°55' W 089°58'8 0.4
2014-Dec-14 02:29N 29°55' W 090°07'3 3.3
2014-Dec-14 01:29N 29°56' W 090°04'3 2.4
2014-Dec-14 00:11N 29°56' W 090°00'2 3.0
2014-Dec-13 23:30N 29°55' W 089°58'1 0.9
2014-Dec-13 22:16N 29°55' W 089°59'52 1.4
2014-Dec-12 10:17N 29°32' W 090°52'3 4.2
2014-Dec-12 09:32N 29°34' W 090°55'4 4.2
2014-Dec-12 08:33N 29°37' W 090°59'4 3.8
2014-Dec-12 07:33N 29°37' W 091°03'3 3.4
2014-Dec-12 06:33N 29°38' W 091°07'2 1.9
2014-Dec-12 05:33N 29°40' W 091°08'3 2.5
2014-Dec-12 04:33N 29°41' W 091°10'1 0.7
2014-Dec-12 03:33N 29°41' W 091°11'3 3.1
2014-Dec-12 02:33N 29°40' W 091°14'2 2.0
2014-Dec-12 01:33N 29°39' W 091°17'4 3.7
2014-Dec-12 00:33N 29°38' W 091°21'3 3.3
2014-Dec-11 23:31N 29°39' W 091°25'22 2.1
2014-Dec-11 13:05N 29°47' W 091°49'  

Dump ship's entire track history